Time;durP1;ratioP1;P1;durP2;ratioP2;P2;SDS_P1;SDS_P2;PMS_P1;PMS_P2;Temp;Humidity;BMP_temperature;BMP_pressure;BME280_temperature;BME280_humidity;BME280_pressure;Samples;Min_cycle;Max_cycle;Signal;HPM_P1;HPM_P2
2021/03/27 00:00:18;;;;;;;;;16.25;12.25;;;;;13.31;47.97;98753.91;4861092;28;103134;-84
2021/03/27 00:02:56;;;;;;;;;14.25;11.50;;;;;13.30;48.77;98749.50;4856380;28;102454;-84
2021/03/27 00:05:41;;;;;;;;;13.25;11.25;;;;;13.31;47.84;98750.34;4859711;28;104107;-84
2021/03/27 00:08:17;;;;;;;;;13.00;10.00;;;;;13.29;48.18;98752.44;4854598;28;102180;-84
2021/03/27 00:10:57;;;;;;;;;11.50;10.50;;;;;13.28;48.79;98751.59;4844517;28;102081;-84
2021/03/27 00:13:31;;;;;;;;;13.25;13.00;;;;;13.28;48.71;98746.16;4864397;28;102350;-84
2021/03/27 00:16:04;;;;;;;;;11.25;10.00;;;;;13.27;48.51;98751.81;4860166;28;104415;-84
2021/03/27 00:18:49;;;;;;;;;11.00;11.00;;;;;13.28;48.72;98751.59;4881816;28;102518;-84
2021/03/27 00:21:32;;;;;;;;;14.75;12.75;;;;;13.28;47.97;98748.06;4863118;28;102600;-84
2021/03/27 00:24:06;;;;;;;;;13.25;12.25;;;;;13.27;48.14;98749.94;4854551;28;102846;-84
2021/03/27 00:26:46;;;;;;;;;12.75;9.50;;;;;13.26;48.06;98747.44;4869551;28;104072;-91
2021/03/27 00:29:21;;;;;;;;;14.00;10.25;;;;;13.26;48.11;98742.00;4858772;28;102318;-91
2021/03/27 00:32:11;;;;;;;;;12.00;11.00;;;;;13.24;47.83;98744.91;4852490;28;102547;-91
2021/03/27 00:34:40;;;;;;;;;14.00;13.25;;;;;13.25;48.59;98741.16;4845687;28;102924;-91
2021/03/27 00:37:10;;;;;;;;;12.75;10.25;;;;;13.26;47.88;98742.00;4859955;28;104343;-91
2021/03/27 00:40:02;;;;;;;;;12.75;11.25;;;;;13.24;47.82;98731.34;4856040;28;102813;-91
2021/03/27 00:42:40;;;;;;;;;14.25;13.50;;;;;13.24;48.31;98739.50;4860386;28;102232;-91
2021/03/27 00:45:15;;;;;;;;;14.50;12.00;;;;;13.23;48.65;98739.72;4861485;28;103206;-91
2021/03/27 00:47:48;;;;;;;;;15.25;13.75;;;;;13.23;48.65;98731.59;4883659;28;104205;-91
2021/03/27 00:50:30;;;;;;;;;14.25;11.75;;;;;13.23;47.69;98731.59;4863613;28;102282;-91
2021/03/27 00:53:02;;;;;;;;;13.25;11.00;;;;;13.23;48.33;98727.00;4868440;28;102503;-91
2021/03/27 00:55:36;;;;;;;;;12.50;11.50;;;;;13.21;48.70;98723.63;4838862;28;103937;-84
2021/03/27 00:58:06;;;;;;;;;12.25;12.00;;;;;13.21;47.79;98723.63;4882542;28;103794;-84
2021/03/27 01:00:42;;;;;;;;;13.75;13.00;;;;;13.20;47.97;98727.41;4880056;28;102136;-84
2021/03/27 01:03:15;;;;;;;;;14.00;11.50;;;;;13.20;48.27;98719.25;4832573;28;102520;-84
2021/03/27 01:05:42;;;;;;;;;15.00;13.00;;;;;13.19;48.72;98720.28;4864449;28;102205;-84
2021/03/27 01:08:09;;;;;;;;;13.75;10.50;;;;;13.19;48.62;98709.44;4866295;28;104072;-84
2021/03/27 01:10:48;;;;;;;;;13.00;12.00;;;;;13.20;47.75;98711.09;4867261;28;102892;-84
2021/03/27 01:13:19;;;;;;;;;12.75;10.25;;;;;13.21;48.70;98718.22;4863116;28;102109;-84
2021/03/27 01:15:56;;;;;;;;;12.75;9.50;;;;;13.20;48.11;98713.81;4864710;28;105342;-84
2021/03/27 01:18:45;;;;;;;;;15.00;11.00;;;;;13.20;47.75;98704.84;4868160;28;103774;-84
2021/03/27 01:21:16;;;;;;;;;15.25;9.50;;;;;13.19;47.69;98704.00;4855400;28;102574;-84
2021/03/27 01:23:43;;;;;;;;;12.25;11.50;;;;;13.19;47.79;98701.28;4879436;28;103877;-84
2021/03/27 01:26:15;;;;;;;;;15.00;12.75;;;;;13.19;48.58;98704.00;4885585;28;105031;-91
2021/03/27 01:28:44;;;;;;;;;16.25;9.75;;;;;13.19;47.62;98703.19;4877761;28;104047;-91
2021/03/27 01:31:12;;;;;;;;;10.00;9.25;;;;;13.18;47.61;98699.66;4859375;28;102168;-89
2021/03/27 01:33:44;;;;;;;;;8.25;8.25;;;;;13.18;48.48;98688.78;4859972;28;105080;-91
2021/03/27 01:36:16;;;;;;;;;10.50;9.75;;;;;13.19;48.12;98693.13;4866947;28;102367;-91
2021/03/27 01:38:47;;;;;;;;;13.50;11.25;;;;;13.18;48.47;98696.09;4855060;28;104105;-91
2021/03/27 01:41:41;;;;;;;;;12.00;10.50;;;;;13.19;47.77;98692.34;4881920;28;102349;-91
2021/03/27 01:44:42;;;;;;;;;9.00;9.00;;;;;13.17;47.65;98695.25;4882477;28;103457;-91
2021/03/27 01:47:37;;;;;;;;;14.25;13.75;;;;;13.18;48.50;98693.38;4867312;28;102344;-91
2021/03/27 01:50:37;;;;;;;;;13.25;8.75;;;;;13.17;47.93;98694.41;4852923;28;104099;-91
2021/03/27 01:53:13;;;;;;;;;12.75;11.50;;;;;13.17;48.09;98689.81;4868425;28;102218;-91
2021/03/27 01:55:53;;;;;;;;;14.50;12.75;;;;;13.17;48.50;98684.41;4873589;28;102788;-84
2021/03/27 01:58:24;;;;;;;;;9.25;9.25;;;;;13.17;48.60;98687.09;4859244;28;102992;-92
2021/03/27 02:01:05;;;;;;;;;12.00;9.75;;;;;13.17;47.54;98687.09;4858383;28;103999;-92
2021/03/27 02:03:35;;;;;;;;;12.25;10.75;;;;;13.17;47.60;98697.97;4862166;28;103367;-92
2021/03/27 02:06:20;;;;;;;;;14.25;12.50;;;;;13.17;48.39;98678.97;4882841;28;102062;-92
2021/03/27 02:09:11;;;;;;;;;10.00;9.00;;;;;13.17;48.17;98684.41;4863963;28;102439;-92
2021/03/27 02:11:50;;;;;;;;;15.00;12.00;;;;;13.16;47.46;98677.28;4862961;28;103515;-92
2021/03/27 02:14:47;;;;;;;;;15.25;10.75;;;;;13.13;48.03;98666.88;4876124;28;104557;-92
2021/03/27 02:17:40;;;;;;;;;12.25;10.50;;;;;13.14;47.67;98673.97;4863875;28;102422;-91
2021/03/27 02:20:28;;;;;;;;;10.00;8.75;;;;;13.16;48.48;98676.44;4875039;28;102268;-91
2021/03/27 02:22:57;;;;;;;;;12.75;11.00;;;;;13.14;47.80;98679.41;4875370;28;104115;-92
2021/03/27 02:25:36;;;;;;;;;12.50;11.75;;;;;13.15;48.34;98678.34;4875705;28;102687;-84
2021/03/27 02:28:33;;;;;;;;;13.75;12.75;;;;;13.15;48.40;98677.53;4863642;28;104211;-84
2021/03/27 02:31:19;;;;;;;;;13.00;12.00;;;;;13.14;47.94;98667.72;4860962;28;102630;-84
2021/03/27 02:34:12;;;;;;;;;14.00;12.00;;;;;13.13;47.82;98680.44;4863317;28;104027;-84
2021/03/27 02:36:46;;;;;;;;;12.75;10.75;;;;;13.13;47.57;98680.44;4878569;28;103030;-84
2021/03/27 02:39:56;;;;;;;;;10.75;8.75;;;;;13.12;47.69;98670.63;4855881;28;102753;-84
2021/03/27 02:42:40;;;;;;;;;17.25;13.50;;;;;13.13;48.42;98672.31;4855024;28;102415;-84
2021/03/27 02:45:23;;;;;;;;;11.75;10.00;;;;;13.13;47.53;98669.59;4860009;28;104092;-84
2021/03/27 02:48:20;;;;;;;;;15.25;12.75;;;;;13.11;47.60;98663.53;4851551;28;102352;-84
2021/03/27 02:51:06;;;;;;;;;13.00;12.00;;;;;13.10;47.48;98656.41;4867646;28;102578;-84
2021/03/27 02:53:43;;;;;;;;;11.75;11.75;;;;;13.11;47.56;98663.53;4857897;28;102309;-84
2021/03/27 02:56:27;;;;;;;;;13.00;11.50;;;;;13.10;48.58;98659.13;4855994;28;103837;-84
2021/03/27 02:59:15;;;;;;;;;7.00;7.00;;;;;13.10;48.33;98656.41;4882101;28;102473;-84
2021/03/27 03:02:12;;;;;;;;;15.75;12.75;;;;;13.09;47.92;98662.91;4883087;28;102502;-84
2021/03/27 03:04:50;;;;;;;;;14.25;12.25;;;;;13.11;47.69;98658.09;4886802;28;102216;-84
2021/03/27 03:07:45;;;;;;;;;13.75;12.75;;;;;13.08;48.07;98655.78;4861699;28;103600;-84
2021/03/27 03:10:19;;;;;;;;;14.75;12.00;;;;;13.08;47.52;98653.06;4858610;28;102457;-84
2021/03/27 03:13:20;;;;;;;;;14.25;12.25;;;;;13.08;47.38;98647.66;4859918;28;102281;-84
2021/03/27 03:15:57;;;;;;;;;11.50;10.25;;;;;13.06;47.67;98641.59;4884233;28;102425;-84
2021/03/27 03:19:06;;;;;;;;;11.00;9.75;;;;;13.06;47.93;98641.59;4884338;28;104166;-84
2021/03/27 03:21:43;;;;;;;;;13.25;11.50;;;;;13.06;48.39;98636.16;4857308;28;102873;-84
2021/03/27 03:24:27;;;;;;;;;15.50;12.00;;;;;13.07;47.47;98635.13;4864649;28;102455;-84
2021/03/27 03:27:22;;;;;;;;;12.75;12.00;;;;;13.05;47.51;98634.50;4862724;28;102559;-84
2021/03/27 03:29:57;;;;;;;;;13.75;12.75;;;;;13.05;48.15;98639.94;4860261;28;104077;-84
2021/03/27 03:32:48;;;;;;;;;14.50;12.25;;;;;13.05;47.80;98639.09;4879566;28;102658;-85
2021/03/27 03:35:42;;;;;;;;;14.25;11.75;;;;;13.04;47.92;98629.28;4878479;28;102075;-92
2021/03/27 03:38:47;;;;;;;;;14.25;11.50;;;;;13.04;48.34;98629.28;4878880;28;102462;-92
2021/03/27 03:41:26;;;;;;;;;15.75;11.50;;;;;13.03;48.32;98625.75;4854385;28;104502;-91
2021/03/27 03:44:06;;;;;;;;;14.00;14.00;;;;;13.03;48.03;98627.63;4877442;28;102995;-91
2021/03/27 03:46:48;;;;;;;;;12.75;10.50;;;;;13.03;47.63;98625.75;4861452;28;102646;-92
2021/03/27 03:49:42;;;;;;;;;14.75;13.25;;;;;13.03;47.84;98624.91;4866277;28;102963;-92
2021/03/27 03:52:28;;;;;;;;;13.25;12.75;;;;;13.02;47.65;98623.22;4881795;28;104066;-91
2021/03/27 03:55:08;;;;;;;;;12.50;9.00;;;;;13.01;47.80;98630.56;4861094;28;102949;-84
2021/03/27 03:57:53;;;;;;;;;15.25;14.00;;;;;13.00;48.15;98623.47;4866420;28;104434;-84
2021/03/27 04:00:41;;;;;;;;;13.00;12.50;;;;;13.02;47.53;98629.50;4873938;28;102576;-84
2021/03/27 04:03:22;;;;;;;;;12.50;11.00;;;;;13.01;47.48;98625.16;4861139;28;104086;-84
2021/03/27 04:06:03;;;;;;;;;14.00;12.00;;;;;13.01;47.80;98617.00;4864754;28;102430;-84
2021/03/27 04:08:40;;;;;;;;;15.00;12.00;;;;;13.00;48.09;98620.75;4877497;28;102138;-84
2021/03/27 04:11:45;;;;;;;;;15.25;10.75;;;;;13.00;48.09;98615.31;4853253;28;102814;-84
2021/03/27 04:14:25;;;;;;;;;10.00;9.25;;;;;12.98;47.76;98612.81;4876662;28;104124;-84
2021/03/27 04:16:52;;;;;;;;;12.00;10.25;;;;;12.97;47.63;98607.59;4859631;28;102598;-84
2021/03/27 04:19:24;;;;;;;;;11.50;10.00;;;;;12.98;47.88;98614.69;4875144;28;102339;-84
2021/03/27 04:22:12;;;;;;;;;12.75;9.50;;;;;12.98;48.10;98615.53;4864299;28;102291;-84
2021/03/27 04:24:59;;;;;;;;;13.75;11.00;;;;;12.98;48.25;98609.25;4880195;28;104088;-84
2021/03/27 04:27:30;;;;;;;;;13.75;12.75;;;;;12.98;48.19;98623.69;4873746;28;102278;-84
2021/03/27 04:30:12;;;;;;;;;12.75;12.00;;;;;12.97;47.80;98618.44;4839532;28;103569;-84
2021/03/27 04:32:44;;;;;;;;;14.75;12.25;;;;;12.97;48.02;98619.28;4858809;28;102602;-84
2021/03/27 04:35:22;;;;;;;;;12.50;10.00;;;;;12.98;48.27;98625.56;4855770;28;105238;-84
2021/03/27 04:37:55;;;;;;;;;15.00;12.50;;;;;13.00;48.11;98623.47;4858358;28;102368;-84
2021/03/27 04:40:30;;;;;;;;;11.50;8.00;;;;;12.99;47.39;98616.38;4871995;28;102099;-84
2021/03/27 04:43:04;;;;;;;;;13.50;11.75;;;;;12.97;47.33;98616.56;4857851;28;102578;-84
2021/03/27 04:46:09;;;;;;;;;11.50;11.50;;;;;12.96;48.05;98616.81;4849346;28;104119;-84
2021/03/27 04:48:42;;;;;;;;;13.75;10.00;;;;;12.95;47.38;98609.72;4877945;28;102141;-84
2021/03/27 04:51:30;;;;;;;;;14.00;13.00;;;;;12.96;48.02;98616.81;4850704;28;102484;-84
2021/03/27 04:54:10;;;;;;;;;12.50;11.75;;;;;12.96;47.83;98616.81;4880584;28;102233;-84
2021/03/27 04:56:57;;;;;;;;;14.75;9.25;;;;;12.96;47.71;98611.38;4856650;28;104232;-84
2021/03/27 04:59:42;;;;;;;;;13.75;13.00;;;;;12.95;47.60;98601.56;4842798;28;102422;-84
2021/03/27 05:02:12;;;;;;;;;11.25;10.25;;;;;12.94;47.93;98616.19;4834480;28;105465;-84
2021/03/27 05:04:57;;;;;;;;;15.00;14.00;;;;;12.95;47.30;98620.56;4826307;29;102410;-84
2021/03/27 05:07:38;;;;;;;;;11.75;9.50;;;;;12.95;47.59;98615.13;4838875;28;104064;-84
2021/03/27 05:10:10;;;;;;;;;13.50;12.00;;;;;12.95;47.69;98621.41;4850135;28;102658;-84
2021/03/27 05:12:43;;;;;;;;;15.50;13.00;;;;;12.94;48.15;98614.31;4829870;28;103125;-84
2021/03/27 05:15:25;;;;;;;;;18.00;14.50;;;;;12.94;48.13;98619.72;4837857;28;102790;-84
2021/03/27 05:18:15;;;;;;;;;11.50;11.50;;;;;12.94;47.95;98611.59;4836083;28;104322;-84
2021/03/27 05:20:43;;;;;;;;;12.25;10.00;;;;;12.94;47.71;98613.47;4844098;28;102668;-84
2021/03/27 05:23:09;;;;;;;;;14.00;12.75;;;;;12.94;48.23;98619.72;4835311;29;102521;-84
2021/03/27 05:25:45;;;;;;;;;13.00;11.75;;;;;12.95;48.04;98607.00;4839248;28;102411;-84
2021/03/27 05:28:27;;;;;;;;;15.25;12.75;;;;;12.95;47.82;98615.13;4838306;29;103972;-84
2021/03/27 05:31:05;;;;;;;;;10.25;9.75;;;;;12.94;47.18;98610.75;4835969;28;102014;-84
2021/03/27 05:33:41;;;;;;;;;13.00;12.00;;;;;12.95;47.82;98615.97;4861076;28;102247;-84
2021/03/27 05:36:26;;;;;;;;;13.00;9.75;;;;;12.95;47.81;98618.69;4836948;28;102612;-84
2021/03/27 05:39:14;;;;;;;;;12.50;10.50;;;;;12.95;47.33;98610.53;4832962;29;104525;-84
2021/03/27 05:41:56;;;;;;;;;15.75;12.25;;;;;12.93;47.71;98604.47;4835982;28;102558;-84
2021/03/27 05:44:37;;;;;;;;;14.00;10.00;;;;;12.95;47.79;98612.44;4840801;28;102530;-84
2021/03/27 05:47:31;;;;;;;;;11.25;11.25;;;;;12.97;48.01;98613.03;4839493;29;102229;-84
2021/03/27 05:50:23;;;;;;;;;12.50;8.75;;;;;12.96;48.02;98619.53;4839230;29;104303;-84
2021/03/27 05:52:58;;;;;;;;;11.25;9.75;;;;;12.95;48.09;98618.69;4845145;29;102264;-84
2021/03/27 05:55:29;;;;;;;;;12.00;10.50;;;;;12.95;47.12;98621.41;4846785;28;103646;-84
2021/03/27 05:57:55;;;;;;;;;13.75;11.50;;;;;12.94;47.17;98611.59;4857626;28;105341;-84
2021/03/27 06:00:45;;;;;;;;;11.00;8.50;;;;;12.95;47.65;98615.97;4882571;28;104059;-84
2021/03/27 06:03:32;;;;;;;;;10.00;8.00;;;;;12.96;47.88;98611.38;4867174;28;102721;-84
2021/03/27 06:06:17;;;;;;;;;8.25;8.00;;;;;12.96;47.96;98605.94;4858218;28;102726;-91
2021/03/27 06:09:29;;;;;;;;;12.50;11.25;;;;;12.96;47.30;98605.94;4880194;28;104899;-91
2021/03/27 06:12:09;;;;;;;;;10.00;8.25;;;;;12.97;47.54;98610.31;4869786;28;104279;-91
2021/03/27 06:15:07;;;;;;;;;10.25;9.00;;;;;12.96;48.12;98608.66;4857206;28;102931;-91
2021/03/27 06:17:53;;;;;;;;;13.50;12.00;;;;;12.96;47.37;98606.78;4852735;28;102301;-91
2021/03/27 06:20:47;;;;;;;;;10.75;9.50;;;;;12.95;47.50;98605.13;4878430;28;102454;-91
2021/03/27 06:23:51;;;;;;;;;13.00;11.50;;;;;12.98;47.72;98606.56;4885430;28;104462;-91
2021/03/27 06:26:48;;;;;;;;;11.25;10.50;;;;;12.97;47.35;98607.59;4873826;28;102790;-91
2021/03/27 06:29:38;;;;;;;;;11.75;9.75;;;;;12.98;47.20;98611.97;4856360;28;102451;-91
2021/03/27 06:32:42;;;;;;;;;9.50;8.50;;;;;12.97;47.63;98607.59;4866923;28;102668;-91
2021/03/27 06:35:46;;;;;;;;;11.75;10.50;;;;;12.99;47.13;98597.38;4880943;28;104112;-84
2021/03/27 06:38:19;;;;;;;;;12.00;10.00;;;;;12.98;47.89;98590.28;4885787;28;102361;-84
2021/03/27 06:41:30;;;;;;;;;12.50;11.75;;;;;12.99;47.43;98591.94;4866544;28;102131;-84
2021/03/27 06:44:11;;;;;;;;;11.00;11.00;;;;;12.99;48.01;98594.66;4866679;28;103206;-84
2021/03/27 06:47:02;;;;;;;;;12.00;10.75;;;;;12.98;47.20;98596.53;4877957;28;104387;-84
2021/03/27 06:49:51;;;;;;;;;13.50;10.75;;;;;13.00;47.79;98600.91;4869893;28;102211;-84
2021/03/27 06:52:46;;;;;;;;;14.00;10.25;;;;;13.00;47.76;98600.91;4887217;28;102312;-84
2021/03/27 06:55:25;;;;;;;;;9.00;8.00;;;;;13.01;47.73;98594.44;4870480;28;102577;-84
2021/03/27 06:58:35;;;;;;;;;13.00;10.00;;;;;13.00;46.99;98596.31;4884216;28;104216;-84
2021/03/27 07:01:29;;;;;;;;;12.00;10.50;;;;;13.01;47.09;98589.84;4862973;28;102443;-84
2021/03/27 07:04:17;;;;;;;;;12.25;11.50;;;;;13.01;46.95;98587.13;4888855;28;102293;-84
2021/03/27 07:07:08;;;;;;;;;4.25;3.00;;;;;13.02;47.43;98596.09;4854620;28;103653;-84
2021/03/27 07:09:53;;;;;;;;;11.50;9.25;;;;;13.00;47.34;98590.91;4870914;28;104131;-84
2021/03/27 07:12:57;;;;;;;;;13.00;10.00;;;;;13.01;46.95;98598.00;4859148;28;103101;-86
2021/03/27 07:15:53;;;;;;;;;12.25;11.50;;;;;13.02;46.67;98594.22;4882352;28;102143;-86
2021/03/27 07:18:44;;;;;;;;;9.50;9.00;;;;;13.03;47.51;98601.31;4879740;28;102392;-85
2021/03/27 07:21:29;;;;;;;;;13.25;10.25;;;;;13.03;47.36;98587.75;4857420;28;104382;-86
2021/03/27 07:24:23;;;;;;;;;8.67;8.67;;;;;13.04;46.77;98597.56;4885264;28;102141;-85
2021/03/27 07:27:14;;;;;;;;;12.50;9.75;;;;;13.05;47.74;98593.78;4878931;28;103985;-85
2021/03/27 07:29:49;;;;;;;;;10.25;8.00;;;;;13.05;46.72;98599.22;4884103;28;103191;-85
2021/03/27 07:32:42;;;;;;;;;13.00;12.50;;;;;13.05;47.65;98593.78;4863212;28;104234;-85
2021/03/27 07:35:31;;;;;;;;;9.00;9.00;;;;;13.06;47.30;98591.91;4885544;28;102594;-84
2021/03/27 07:38:26;;;;;;;;;11.50;8.75;;;;;13.07;46.92;98590.84;4884598;28;102384;-84
2021/03/27 07:40:57;;;;;;;;;10.25;9.00;;;;;13.06;47.39;98586.50;4885126;28;103032;-84
2021/03/27 07:43:35;;;;;;;;;15.75;13.00;;;;;13.07;47.60;98586.25;4875211;28;104079;-84
2021/03/27 07:46:33;;;;;;;;;10.25;8.50;;;;;13.09;46.73;98583.34;4867285;28;102716;-85
2021/03/27 07:49:02;;;;;;;;;10.00;8.00;;;;;13.08;47.79;98587.09;4882435;28;104026;-84
2021/03/27 07:51:52;;;;;;;;;10.00;9.00;;;;;13.08;47.62;98585.22;4877470;28;103393;-85
2021/03/27 07:55:01;;;;;;;;;12.25;10.50;;;;;13.09;47.52;98594.19;4862561;28;104073;-84
2021/03/27 07:57:46;;;;;;;;;9.25;8.00;;;;;13.10;46.65;98591.28;4862254;28;102675;-84
2021/03/27 08:00:40;;;;;;;;;9.00;9.00;;;;;13.10;46.78;98574.97;4879975;28;102614;-84
2021/03/27 08:03:13;;;;;;;;;10.00;8.50;;;;;13.11;47.56;98587.50;4860762;28;102529;-85
2021/03/27 08:05:58;;;;;;;;;8.50;8.25;;;;;13.12;46.60;98588.34;4883429;28;104334;-85
2021/03/27 08:08:34;;;;;;;;;9.50;8.50;;;;;13.11;47.25;98587.50;4880173;28;102039;-85
2021/03/27 08:11:19;;;;;;;;;11.75;10.50;;;;;13.12;47.41;98589.19;4876530;28;102249;-84
2021/03/27 08:14:07;;;;;;;;;11.75;10.50;;;;;13.13;46.56;98596.28;4869806;28;105688;-84
2021/03/27 08:17:11;;;;;;;;;9.25;7.75;;;;;13.13;47.12;98588.13;4880944;28;104110;-85
2021/03/27 08:19:53;;;;;;;;;11.75;9.50;;;;;13.14;47.15;98592.53;4883950;28;103320;-85
2021/03/27 08:22:50;;;;;;;;;8.75;7.50;;;;;13.15;47.52;98593.38;4866337;28;102306;-85
2021/03/27 08:25:34;;;;;;;;;9.25;7.25;;;;;13.15;47.46;98587.94;4870437;28;102501;-85
2021/03/27 08:28:16;;;;;;;;;6.50;6.50;;;;;13.16;46.63;98586.84;4860513;28;104079;-85
2021/03/27 08:30:51;;;;;;;;;7.25;7.25;;;;;13.16;46.49;98584.97;4885623;28;102254;-85
2021/03/27 08:33:27;;;;;;;;;8.50;8.25;;;;;13.17;47.67;98583.94;4864567;28;102391;-85
2021/03/27 08:36:15;;;;;;;;;9.25;8.00;;;;;13.18;47.07;98582.06;4881872;28;102347;-85
2021/03/27 08:38:42;;;;;;;;;7.25;6.50;;;;;13.18;47.23;98577.47;4883833;28;104492;-85
2021/03/27 08:41:15;;;;;;;;;8.00;7.00;;;;;13.18;47.47;98585.59;4880287;28;102509;-85
2021/03/27 08:44:00;;;;;;;;;9.25;9.00;;;;;13.19;47.59;98584.53;4876164;28;102498;-85
2021/03/27 08:46:44;;;;;;;;;9.00;7.75;;;;;13.20;46.72;98572.63;4881821;28;103377;-85
2021/03/27 08:49:38;;;;;;;;;9.00;9.00;;;;;13.20;47.56;98575.34;4858859;28;104224;-85
2021/03/27 08:52:05;;;;;;;;;9.75;9.00;;;;;13.20;47.28;98569.91;4885924;28;102264;-85
2021/03/27 08:54:50;;;;;;;;;5.00;4.00;;;;;13.21;47.29;98577.03;4885846;28;102503;-85
2021/03/27 08:57:51;;;;;;;;;6.50;6.00;;;;;13.23;46.97;98574.94;4880247;28;102495;-85
2021/03/27 09:00:38;;;;;;;;;8.00;8.00;;;;;13.24;47.38;98571.13;4880245;28;104263;-85
2021/03/27 09:03:25;;;;;;;;;7.00;6.25;;;;;13.23;46.66;98569.50;4864338;28;102546;-85
2021/03/27 09:06:01;;;;;;;;;7.50;6.50;;;;;13.24;47.20;98568.41;4868020;28;102353;-85
2021/03/27 09:08:38;;;;;;;;;8.50;8.00;;;;;13.25;46.62;98566.53;4888867;28;102207;-85
2021/03/27 09:11:15;;;;;;;;;8.50;8.00;;;;;13.25;46.51;98555.69;4876846;28;104097;-85
2021/03/27 09:13:53;;;;;;;;;7.00;7.00;;;;;13.26;46.86;98554.63;4860810;28;103448;-85
2021/03/27 09:16:51;;;;;;;;;9.00;7.50;;;;;13.27;46.91;98559.88;4846838;28;104604;-85
2021/03/27 09:19:21;;;;;;;;;7.00;7.00;;;;;13.27;47.13;98557.16;4882103;28;102278;-85
2021/03/27 09:21:54;;;;;;;;;6.00;6.00;;;;;13.29;46.85;98555.03;4886273;28;104107;-79
2021/03/27 09:24:38;;;;;;;;;8.25;8.00;;;;;13.32;47.35;98561.91;4884966;28;102653;-90
2021/03/27 09:27:29;;;;;;;;;8.25;7.00;;;;;13.34;46.62;98559.81;4857330;28;102189;-90
2021/03/27 09:30:36;;;;;;;;;9.00;9.00;;;;;13.36;46.94;98563.13;4885776;28;102800;-93
2021/03/27 09:33:27;;;;;;;;;6.00;6.00;;;;;13.36;46.72;98558.53;4849425;28;104096;-90
2021/03/27 09:36:00;;;;;;;;;9.75;9.50;;;;;13.37;47.15;98552.03;4884594;28;104505;-90
2021/03/27 09:38:34;;;;;;;;;15.25;15.00;;;;;13.38;47.30;98556.44;4862407;28;102242;-90
2021/03/27 09:41:42;;;;;;;;;16.25;13.75;;;;;13.38;47.66;98561.84;4867160;28;102564;-90
2021/03/27 09:44:11;;;;;;;;;16.00;15.75;;;;;13.41;47.09;98555.16;4854898;28;104095;-90
2021/03/27 09:47:00;;;;;;;;;18.50;18.00;;;;;13.41;47.09;98552.44;4856701;28;102387;-90
2021/03/27 09:49:31;;;;;;;;;24.00;19.25;;;;;13.44;47.17;98564.75;4886282;28;102364;-90
2021/03/27 09:52:40;;;;;;;;;23.50;20.75;;;;;13.45;47.82;98545.53;4882999;28;102702;-90
2021/03/27 09:55:15;;;;;;;;;28.25;24.25;;;;;13.46;47.14;98554.50;4875298;28;104259;-90
2021/03/27 09:57:56;;;;;;;;;26.25;24.75;;;;;13.47;47.46;98559.69;4886113;28;102248;-90
2021/03/27 10:00:50;;;;;;;;;25.75;24.00;;;;;13.50;47.51;98553.00;4883778;28;103082;-90
2021/03/27 10:19:32;;;;;;;;;33.75;29.25;;;;;13.58;47.10;98552.72;4942894;28;102260;-92
2021/03/27 10:21:59;;;;;;;;;30.75;26.25;;;;;13.61;46.79;98560.44;4935762;28;102625;-90
2021/03/27 10:24:45;;;;;;;;;25.75;24.75;;;;;13.63;46.73;98561.06;4930904;28;105209;-95
2021/03/27 10:27:42;;;;;;;;;26.75;22.50;;;;;13.63;47.17;98561.88;4934255;28;104592;-95
2021/03/27 10:30:29;;;;;;;;;28.25;26.25;;;;;13.66;47.77;98569.59;4951070;28;102629;-94
2021/03/27 10:33:11;;;;;;;;;23.25;22.25;;;;;13.67;46.72;98573.97;4952673;28;104163;-94
2021/03/27 10:35:46;;;;;;;;;26.75;25.50;;;;;13.67;46.93;98570.41;4948225;28;103921;-94
2021/03/27 10:38:34;;;;;;;;;28.75;23.50;;;;;13.69;47.32;98574.56;4943879;28;102159;-94
2021/03/27 10:41:24;;;;;;;;;27.75;24.00;;;;;13.70;47.29;98575.41;4949736;28;102625;-94
2021/03/27 10:44:05;;;;;;;;;27.75;24.25;;;;;13.71;46.62;98566.22;4927186;28;102547;-94
2021/03/27 10:46:44;;;;;;;;;24.50;22.00;;;;;13.73;46.77;98569.53;4952548;28;104064;-94
2021/03/27 10:49:11;;;;;;;;;27.50;24.25;;;;;13.74;47.21;98572.03;4937507;28;102089;-94
2021/03/27 10:52:00;;;;;;;;;28.25;24.25;;;;;13.76;47.31;98577.25;4936553;28;102105;-94
2021/03/27 10:54:49;;;;;;;;;26.00;22.50;;;;;13.78;47.42;98564.25;4933370;28;102621;-89
2021/03/27 10:57:26;;;;;;;;;27.25;23.00;;;;;13.77;47.12;98571.59;4951820;28;104065;-88
2021/03/27 11:00:09;;;;;;;;;29.75;24.75;;;;;13.81;47.74;98566.53;4953030;28;102588;-88
2021/03/27 11:03:00;;;;;;;;;23.75;22.50;;;;;13.82;46.66;98566.31;4952786;28;102173;-88
2021/03/27 11:05:38;;;;;;;;;25.25;22.25;;;;;13.82;46.52;98563.59;4933252;28;102815;-89
2021/03/27 11:08:42;;;;;;;;;23.00;21.25;;;;;13.84;46.79;98574.25;4928050;28;104097;-89
2021/03/27 11:11:30;;;;;;;;;22.50;22.00;;;;;13.85;47.70;98567.75;4934377;28;102407;-89
2021/03/27 11:14:35;;;;;;;;;21.75;21.50;;;;;13.88;46.72;98571.91;4931384;28;102744;-89
2021/03/27 11:17:29;;;;;;;;;27.50;23.75;;;;;13.89;46.62;98568.97;4931009;28;102669;-89
2021/03/27 11:20:11;;;;;;;;;25.25;21.50;;;;;13.88;47.16;98569.19;4924641;28;104096;-89
2021/03/27 11:22:56;;;;;;;;;23.50;22.00;;;;;13.92;46.73;98573.13;4905627;28;102697;-87
2021/03/27 11:25:48;;;;;;;;;18.75;18.00;;;;;13.92;46.92;98582.09;4917670;28;102386;-85
2021/03/27 11:28:21;;;;;;;;;22.75;21.75;;;;;13.92;46.87;98578.56;4921838;28;102550;-85
2021/03/27 11:31:03;;;;;;;;;21.50;20.25;;;;;13.92;46.83;98579.41;4920640;28;104083;-85
2021/03/27 11:33:37;;;;;;;;;20.00;18.25;;;;;13.94;47.05;98571.88;4924529;28;102353;-85
2021/03/27 11:36:07;;;;;;;;;21.75;20.00;;;;;13.94;46.41;98577.28;4903159;28;102505;-85
2021/03/27 11:38:55;;;;;;;;;19.75;18.00;;;;;13.96;46.86;98575.16;4900164;28;102733;-86
2021/03/27 11:41:44;;;;;;;;;25.25;22.50;;;;;13.98;46.48;98577.69;4905119;28;104216;-86
2021/03/27 11:44:29;;;;;;;;;24.25;20.25;;;;;14.00;46.61;98564.72;4924875;28;102651;-85
2021/03/27 11:46:58;;;;;;;;;19.75;18.50;;;;;14.01;46.71;98567.19;4922116;28;102303;-86
2021/03/27 11:49:39;;;;;;;;;24.25;22.00;;;;;14.03;46.47;98570.53;4939886;28;102585;-85
2021/03/27 11:52:24;;;;;;;;;20.25;20.00;;;;;14.06;46.81;98569.22;4918079;28;104046;-87
2021/03/27 11:55:07;;;;;;;;;26.50;23.00;;;;;14.08;47.12;98572.56;4914826;28;102369;-86
2021/03/27 11:58:05;;;;;;;;;21.00;18.25;;;;;14.08;46.53;98570.69;4922326;28;102500;-87
2021/03/27 12:01:12;;;;;;;;;25.75;23.25;;;;;14.10;47.08;98571.28;4920031;28;102787;-86
2021/03/27 12:04:00;;;;;;;;;22.00;19.25;;;;;14.10;46.23;98581.31;4916833;28;104110;-86
2021/03/27 12:06:36;;;;;;;;;23.00;18.75;;;;;14.16;46.71;98575.81;4917689;28;102682;-86
2021/03/27 12:09:17;;;;;;;;;17.50;17.50;;;;;14.16;46.93;98585.88;4914105;28;102349;-86
2021/03/27 12:11:55;;;;;;;;;18.00;18.00;;;;;14.18;46.87;98572.91;4919598;28;102226;-84
2021/03/27 12:14:32;;;;;;;;;20.50;17.75;;;;;14.17;46.84;98585.66;4922356;28;104091;-84
2021/03/27 12:17:14;;;;;;;;;19.75;18.50;;;;;14.17;47.15;98585.66;4919064;28;102828;-83
2021/03/27 12:19:56;;;;;;;;;17.25;16.25;;;;;14.19;46.48;98579.97;4923731;28;102463;-84
2021/03/27 12:22:35;;;;;;;;;19.25;16.25;;;;;14.18;46.55;98579.13;4923497;28;102679;-84
2021/03/27 12:25:35;;;;;;;;;16.25;16.00;;;;;14.19;46.90;98572.66;4900070;28;104089;-84
2021/03/27 12:28:02;;;;;;;;;18.00;16.75;;;;;14.20;46.93;98590.63;4919149;28;102627;-84
2021/03/27 12:30:45;;;;;;;;;20.25;17.50;;;;;14.21;46.71;98605.91;4919935;28;102513;-84
2021/03/27 12:33:22;;;;;;;;;24.25;18.50;;;;;14.22;46.62;98599.41;4934818;28;102575;-84
2021/03/27 12:36:07;;;;;;;;;18.00;16.25;;;;;14.25;47.01;98603.56;4939285;28;104070;-85
2021/03/27 12:39:05;;;;;;;;;16.00;16.00;;;;;14.26;46.87;98594.34;4921012;28;102859;-86
2021/03/27 12:41:45;;;;;;;;;21.00;18.50;;;;;14.29;46.65;98608.31;4935326;28;102665;-87